Time;durP1;ratioP1;P1;durP2;ratioP2;P2;SDS_P1;SDS_P2;PMS_P1;PMS_P2;Temp;Humidity;BMP_temperature;BMP_pressure;BME280_temperature;BME280_humidity;BME280_pressure;Samples;Min_cycle;Max_cycle;Signal;HPM_P1;HPM_P2
2022/04/17 00:02:02;;;;;;;0.10;0.10;;;;;;;;;;5103701;28;20240;-78
2022/04/17 00:04:30;;;;;;;0.10;0.10;;;;;;;;;;5084591;28;20389;-80
2022/04/17 00:06:56;;;;;;;0.10;0.10;;;;;;;;;;5102935;28;20256;-79
2022/04/17 00:09:23;;;;;;;0.10;0.10;;;;;;;;;;5085260;28;20232;-78
2022/04/17 00:11:49;;;;;;;0.10;0.10;;;;;;;;;;5101436;28;20485;-79
2022/04/17 00:14:15;;;;;;;0.10;0.10;;;;;;;;;;5089431;28;20268;-78
2022/04/17 00:16:41;;;;;;;0.20;0.20;;;;;;;;;;5103009;28;20495;-79
2022/04/17 00:19:08;;;;;;;0.10;0.10;;;;;;;;;;5092892;28;20195;-78
2022/04/17 00:21:38;;;;;;;0.17;0.17;;;;;;;;;;5100696;28;20248;-79
2022/04/17 00:24:04;;;;;;;0.10;0.10;;;;;;;;;;5093837;28;20203;-78
2022/04/17 00:26:31;;;;;;;0.10;0.10;;;;;;;;;;5099566;28;20305;-79
2022/04/17 00:28:58;;;;;;;0.10;0.10;;;;;;;;;;5095062;28;20241;-79
2022/04/17 00:31:24;;;;;;;0.10;0.10;;;;;;;;;;5097582;28;20237;-79
2022/04/17 00:33:50;;;;;;;0.10;0.10;;;;;;;;;;5097045;28;20231;-79
2022/04/17 00:36:16;;;;;;;0.10;0.10;;;;;;;;;;5095859;28;20479;-79
2022/04/17 00:38:44;;;;;;;0.10;0.10;;;;;;;;;;5099523;28;20203;-79
2022/04/17 00:41:11;;;;;;;0.10;0.10;;;;;;;;;;5093736;28;20282;-79
2022/04/17 00:43:44;;;;;;;0.20;0.20;;;;;;;;;;5100535;28;20305;-79
2022/04/17 00:46:10;;;;;;;0.20;0.20;;;;;;;;;;5094184;28;20240;-78
2022/04/17 00:48:37;;;;;;;0.20;0.20;;;;;;;;;;5101217;28;20261;-79
2022/04/17 00:51:04;;;;;;;0.10;0.10;;;;;;;;;;5091787;28;20276;-79
2022/04/17 00:53:30;;;;;;;0.10;0.10;;;;;;;;;;5102717;28;20204;-79
2022/04/17 00:55:58;;;;;;;0.10;0.10;;;;;;;;;;5089568;28;20241;-78
2022/04/17 00:58:24;;;;;;;0.13;0.13;;;;;;;;;;5104843;28;20261;-78
2022/04/17 01:00:50;;;;;;;0.17;0.17;;;;;;;;;;5088513;28;20247;-77
2022/04/17 01:03:17;;;;;;;0.20;0.20;;;;;;;;;;5106255;28;20244;-79
2022/04/17 01:05:44;;;;;;;0.10;0.10;;;;;;;;;;5086309;28;20580;-79
2022/04/17 01:08:11;;;;;;;0.10;0.10;;;;;;;;;;5108051;28;20207;-79
2022/04/17 01:10:38;;;;;;;0.20;0.20;;;;;;;;;;5084472;28;20256;-78
2022/04/17 01:13:08;;;;;;;0.10;0.10;;;;;;;;;;5109638;28;20217;-78
2022/04/17 01:15:35;;;;;;;0.17;0.17;;;;;;;;;;5083673;28;20297;-78
2022/04/17 01:18:01;;;;;;;0.10;0.10;;;;;;;;;;5109981;28;20204;-79
2022/04/17 01:20:27;;;;;;;0.20;0.20;;;;;;;;;;5081296;28;20237;-79
2022/04/17 01:26:56;;;;;;;0.20;0.20;;;;;;;;;;5112135;28;20203;-78
2022/04/17 01:28:26;;;;;;;0.20;0.20;;;;;;;;;;5103564;28;20394;-79
2022/04/17 01:30:52;;;;;;;0.10;0.10;;;;;;;;;;5088393;28;20261;-78
2022/04/17 01:33:19;;;;;;;0.20;0.20;;;;;;;;;;5104883;28;20216;-79
2022/04/17 01:35:45;;;;;;;0.10;0.10;;;;;;;;;;5085903;28;20479;-78
2022/04/17 01:38:13;;;;;;;0.20;0.20;;;;;;;;;;5106628;28;20592;-81
2022/04/17 01:40:39;;;;;;;0.20;0.20;;;;;;;;;;5083736;28;20436;-80
2022/04/17 01:43:08;;;;;;;0.10;0.10;;;;;;;;;;5107887;28;20245;-79
2022/04/17 01:45:34;;;;;;;0.40;0.40;;;;;;;;;;5082517;28;20242;-77
2022/04/17 01:48:00;;;;;;;0.10;0.10;;;;;;;;;;5109604;28;20221;-78
2022/04/17 01:50:27;;;;;;;0.10;0.10;;;;;;;;;;5080711;28;20245;-79
2022/04/17 01:52:53;;;;;;;0.20;0.20;;;;;;;;;;5111261;28;20238;-78
2022/04/17 01:55:21;;;;;;;0.20;0.20;;;;;;;;;;5078590;28;20219;-78
2022/04/17 01:57:47;;;;;;;0.10;0.10;;;;;;;;;;5113380;28;20207;-78
2022/04/17 02:00:14;;;;;;;0.10;0.10;;;;;;;;;;5076769;28;20232;-79
2022/04/17 02:02:40;;;;;;;0.10;0.10;;;;;;;;;;5115018;28;20229;-79
2022/04/17 02:05:07;;;;;;;0.10;0.10;;;;;;;;;;5075079;28;20377;-77
2022/04/17 02:07:35;;;;;;;0.10;0.10;;;;;;;;;;5116780;28;20221;-78
2022/04/17 02:10:02;;;;;;;0.10;0.10;;;;;;;;;;5084846;28;20277;-78
2022/04/17 02:12:30;;;;;;;0.10;0.10;;;;;;;;;;5106971;28;20549;-78
2022/04/17 02:14:56;;;;;;;0.20;0.20;;;;;;;;;;5084463;28;20545;-78
2022/04/17 02:17:25;;;;;;;0.10;0.10;;;;;;;;;;5106349;28;20238;-78
2022/04/17 02:19:51;;;;;;;0.17;0.17;;;;;;;;;;5084082;28;20229;-78
2022/04/17 02:22:17;;;;;;;0.10;0.10;;;;;;;;;;5106377;28;20249;-78
2022/04/17 02:24:44;;;;;;;0.10;0.10;;;;;;;;;;5084231;28;20206;-78
2022/04/17 02:27:10;;;;;;;0.10;0.10;;;;;;;;;;5106356;28;20244;-78
2022/04/17 02:29:38;;;;;;;0.10;0.10;;;;;;;;;;5084584;28;20211;-79
2022/04/17 02:32:04;;;;;;;0.20;0.20;;;;;;;;;;5106296;28;20304;-79
2022/04/17 02:34:30;;;;;;;0.17;0.17;;;;;;;;;;5083557;28;20231;-79
2022/04/17 02:36:57;;;;;;;0.10;0.10;;;;;;;;;;5102723;28;20236;-78
2022/04/17 02:39:23;;;;;;;0.10;0.10;;;;;;;;;;5086395;28;20206;-78
2022/04/17 02:41:49;;;;;;;0.20;0.20;;;;;;;;;;5102051;28;20241;-78
2022/04/17 02:44:16;;;;;;;0.10;0.10;;;;;;;;;;5088354;28;20406;-79
2022/04/17 02:49:27;;;;;;;0.10;0.10;;;;;;;;;;5085243;28;20193;-79
2022/04/17 02:51:53;;;;;;;0.20;0.20;;;;;;;;;;5103297;28;20295;-78
2022/04/17 02:54:20;;;;;;;0.20;0.20;;;;;;;;;;5086774;28;20479;-78
2022/04/17 02:56:46;;;;;;;0.10;0.10;;;;;;;;;;5101146;28;20240;-78
2022/04/17 02:59:13;;;;;;;0.10;0.10;;;;;;;;;;5089016;28;20278;-79
2022/04/17 03:07:08;;;;;;;0.20;0.20;;;;;;;;;;5106496;28;20414;-78
2022/04/17 03:09:34;;;;;;;0.10;0.10;;;;;;;;;;5083909;28;20509;-78
2022/04/17 03:12:01;;;;;;;0.10;0.10;;;;;;;;;;5104704;28;20326;-78
2022/04/17 03:14:28;;;;;;;0.10;0.10;;;;;;;;;;5084601;28;20240;-79
2022/04/17 03:16:54;;;;;;;0.10;0.10;;;;;;;;;;5103005;28;20248;-77
2022/04/17 03:19:21;;;;;;;0.10;0.10;;;;;;;;;;5086455;28;20245;-78
2022/04/17 03:21:48;;;;;;;0.10;0.10;;;;;;;;;;5101066;28;20240;-78
2022/04/17 03:24:15;;;;;;;0.10;0.10;;;;;;;;;;5088349;28;20332;-79
2022/04/17 03:26:42;;;;;;;0.20;0.20;;;;;;;;;;5099459;28;20241;-80
2022/04/17 03:29:08;;;;;;;0.20;0.20;;;;;;;;;;5089870;28;20206;-79
2022/04/17 03:31:34;;;;;;;0.20;0.20;;;;;;;;;;5097614;28;20451;-79
2022/04/17 03:34:00;;;;;;;0.13;0.13;;;;;;;;;;5092065;28;20210;-79
2022/04/17 03:36:27;;;;;;;0.20;0.20;;;;;;;;;;5095304;28;20245;-79
2022/04/17 03:38:55;;;;;;;0.13;0.13;;;;;;;;;;5093813;28;20203;-78
2022/04/17 03:41:21;;;;;;;0.20;0.20;;;;;;;;;;5093534;28;20297;-79
2022/04/17 03:43:47;;;;;;;0.20;0.20;;;;;;;;;;5095357;28;20203;-79
2022/04/17 03:46:14;;;;;;;0.20;0.20;;;;;;;;;;5091119;28;20306;-79
2022/04/17 03:48:40;;;;;;;0.10;0.10;;;;;;;;;;5098330;28;20241;-79
2022/04/17 03:51:06;;;;;;;0.10;0.10;;;;;;;;;;5093761;28;20266;-79
2022/04/17 03:53:32;;;;;;;0.10;0.10;;;;;;;;;;5103286;28;20436;-78
2022/04/17 03:56:00;;;;;;;0.20;0.20;;;;;;;;;;5091308;28;20297;-79
2022/04/17 03:58:26;;;;;;;0.20;0.20;;;;;;;;;;5105173;28;20252;-79
2022/04/17 04:00:53;;;;;;;0.20;0.20;;;;;;;;;;5087307;28;20244;-79
2022/04/17 04:03:19;;;;;;;0.20;0.20;;;;;;;;;;5108931;28;20233;-78
2022/04/17 04:05:46;;;;;;;0.20;0.20;;;;;;;;;;5086762;28;20298;-79
2022/04/17 04:08:12;;;;;;;0.20;0.20;;;;;;;;;;5108829;28;20267;-79
2022/04/17 04:10:39;;;;;;;0.10;0.10;;;;;;;;;;5085824;28;20312;-79
2022/04/17 04:13:07;;;;;;;0.20;0.20;;;;;;;;;;5110402;28;20206;-78
2022/04/17 04:15:33;;;;;;;0.20;0.20;;;;;;;;;;5084160;28;20274;-79
2022/04/17 04:17:59;;;;;;;0.20;0.20;;;;;;;;;;5111248;28;20214;-79
2022/04/17 04:20:26;;;;;;;0.20;0.20;;;;;;;;;;5082243;28;20250;-80
2022/04/17 04:22:52;;;;;;;0.10;0.10;;;;;;;;;;5114005;28;20203;-78
2022/04/17 04:25:18;;;;;;;0.20;0.20;;;;;;;;;;5079962;28;20199;-80
2022/04/17 04:30:30;;;;;;;0.20;0.20;;;;;;;;;;5082125;28;20485;-79
2022/04/17 04:32:57;;;;;;;0.20;0.20;;;;;;;;;;5113054;28;20210;-80
2022/04/17 04:35:23;;;;;;;0.13;0.13;;;;;;;;;;5081102;28;20227;-79
2022/04/17 04:37:50;;;;;;;0.20;0.20;;;;;;;;;;5113751;28;20250;-80
2022/04/17 04:40:17;;;;;;;0.10;0.10;;;;;;;;;;5079148;28;20229;-79
2022/04/17 04:42:43;;;;;;;0.20;0.20;;;;;;;;;;5115386;28;20228;-80
2022/04/17 04:47:55;;;;;;;0.50;0.50;;;;;;;;;;5112444;28;20229;-80
2022/04/17 04:50:21;;;;;;;0.10;0.10;;;;;;;;;;5080009;28;20210;-80
2022/04/17 04:52:48;;;;;;;0.40;0.40;;;;;;;;;;5113792;28;20439;-79
2022/04/17 04:55:14;;;;;;;0.20;0.20;;;;;;;;;;5078237;28;20221;-78
2022/04/17 04:57:40;;;;;;;0.20;0.20;;;;;;;;;;5116159;28;20264;-80
2022/04/17 05:00:08;;;;;;;0.10;0.10;;;;;;;;;;5074649;28;20248;-78
2022/04/17 05:02:34;;;;;;;0.40;0.40;;;;;;;;;;5117561;28;20245;-79
2022/04/17 05:05:02;;;;;;;0.10;0.10;;;;;;;;;;5086286;28;20202;-80
2022/04/17 05:07:28;;;;;;;0.20;0.20;;;;;;;;;;5108522;28;20478;-79
2022/04/17 05:09:55;;;;;;;0.10;0.10;;;;;;;;;;5086053;28;20209;-77
2022/04/17 05:12:22;;;;;;;0.10;0.10;;;;;;;;;;5107683;28;20424;-78
2022/04/17 05:14:48;;;;;;;0.10;0.10;;;;;;;;;;5085571;28;20323;-79
2022/04/17 05:17:14;;;;;;;0.10;0.10;;;;;;;;;;5108077;28;20290;-78
2022/04/17 05:19:41;;;;;;;0.20;0.20;;;;;;;;;;5085493;28;20203;-79
2022/04/17 05:22:15;;;;;;;0.20;0.20;;;;;;;;;;5107815;28;20259;-80
2022/04/17 05:24:42;;;;;;;0.20;0.20;;;;;;;;;;5085934;28;20267;-78
2022/04/17 05:27:08;;;;;;;0.20;0.20;;;;;;;;;;5107797;28;20589;-79
2022/04/17 05:29:35;;;;;;;0.20;0.20;;;;;;;;;;5085375;28;20558;-79
2022/04/17 05:32:01;;;;;;;0.10;0.10;;;;;;;;;;5106472;28;20267;-78
2022/04/17 05:34:27;;;;;;;0.20;0.20;;;;;;;;;;5086224;28;20210;-79
2022/04/17 05:36:54;;;;;;;0.10;0.10;;;;;;;;;;5104117;28;20242;-78
2022/04/17 05:39:21;;;;;;;0.10;0.10;;;;;;;;;;5088058;28;20210;-79
2022/04/17 05:41:48;;;;;;;0.10;0.10;;;;;;;;;;5102853;28;20433;-79
2022/04/17 05:44:14;;;;;;;0.10;0.10;;;;;;;;;;5089260;28;20214;-79
2022/04/17 05:46:41;;;;;;;0.60;0.60;;;;;;;;;;5100334;28;20436;-79
2022/04/17 05:49:08;;;;;;;0.20;0.20;;;;;;;;;;5091451;28;20206;-79
2022/04/17 05:51:34;;;;;;;0.20;0.20;;;;;;;;;;5099046;28;20245;-78
2022/04/17 05:54:01;;;;;;;0.13;0.13;;;;;;;;;;5093180;28;20256;-80
2022/04/17 05:56:28;;;;;;;0.10;0.10;;;;;;;;;;5096721;28;20629;-79
2022/04/17 05:58:55;;;;;;;0.20;0.20;;;;;;;;;;5094729;28;20426;-80
2022/04/17 06:01:21;;;;;;;0.40;0.40;;;;;;;;;;5094258;28;20259;-80
2022/04/17 06:03:49;;;;;;;0.20;0.20;;;;;;;;;;5097767;28;20483;-81
2022/04/17 06:06:16;;;;;;;0.20;0.20;;;;;;;;;;5092847;28;20287;-75
2022/04/17 06:08:43;;;;;;;0.17;0.17;;;;;;;;;;5097038;28;20260;-75
2022/04/17 06:11:10;;;;;;;0.20;0.20;;;;;;;;;;5090829;28;20232;-74
2022/04/17 06:13:37;;;;;;;0.10;0.10;;;;;;;;;;5098618;28;20203;-75
2022/04/17 06:16:04;;;;;;;0.10;0.10;;;;;;;;;;5089389;28;20245;-75
2022/04/17 06:18:30;;;;;;;0.20;0.20;;;;;;;;;;5100007;28;20208;-75
2022/04/17 06:21:00;;;;;;;0.10;0.10;;;;;;;;;;5087236;28;20572;-75
2022/04/17 06:23:27;;;;;;;0.17;0.17;;;;;;;;;;5100743;28;20206;-76
2022/04/17 06:25:53;;;;;;;0.10;0.10;;;;;;;;;;5086511;28;20443;-75
2022/04/17 06:28:19;;;;;;;0.20;0.20;;;;;;;;;;5102920;28;20206;-76
2022/04/17 06:30:47;;;;;;;0.10;0.10;;;;;;;;;;5083997;28;20238;-75
2022/04/17 06:33:13;;;;;;;0.17;0.17;;;;;;;;;;5104401;28;20208;-74
2022/04/17 06:35:40;;;;;;;0.20;0.20;;;;;;;;;;5082440;28;20292;-74
2022/04/17 06:38:08;;;;;;;0.20;0.20;;;;;;;;;;5106337;28;20231;-75
2022/04/17 06:40:36;;;;;;;0.10;0.10;;;;;;;;;;5081150;28;20305;-76
2022/04/17 06:43:05;;;;;;;0.10;0.10;;;;;;;;;;5107147;28;20210;-74
2022/04/17 06:45:32;;;;;;;0.10;0.10;;;;;;;;;;5080294;28;20367;-74
2022/04/17 06:48:10;;;;;;;0.10;0.10;;;;;;;;;;5108196;28;20201;-74
2022/04/17 06:50:37;;;;;;;0.10;0.10;;;;;;;;;;5081869;28;20250;-74
2022/04/17 06:53:03;;;;;;;0.10;0.10;;;;;;;;;;5106549;28;20431;-74
2022/04/17 06:55:29;;;;;;;0.10;0.10;;;;;;;;;;5079291;28;20243;-75
2022/04/17 06:57:56;;;;;;;0.10;0.10;;;;;;;;;;5108509;28;20205;-74
2022/04/17 07:00:22;;;;;;;0.10;0.10;;;;;;;;;;5076588;28;20206;-74
2022/04/17 07:02:49;;;;;;;0.10;0.10;;;;;;;;;;5110668;28;20213;-74
2022/04/17 07:05:16;;;;;;;0.10;0.10;;;;;;;;;;5075963;28;20209;-73
2022/04/17 07:07:43;;;;;;;0.10;0.10;;;;;;;;;;5112606;28;20201;-73
2022/04/17 07:10:12;;;;;;;0.10;0.10;;;;;;;;;;5073928;28;20210;-75
2022/04/17 07:12:39;;;;;;;0.10;0.10;;;;;;;;;;5113313;28;20243;-74
2022/04/17 07:15:09;;;;;;;0.10;0.10;;;;;;;;;;5077000;28;20210;-75
2022/04/17 07:17:36;;;;;;;0.10;0.10;;;;;;;;;;5114356;28;20230;-75
2022/04/17 07:20:05;;;;;;;0.10;0.10;;;;;;;;;;5082731;28;20311;-76
2022/04/17 07:22:34;;;;;;;0.10;0.10;;;;;;;;;;5071179;28;20207;-74
2022/04/17 07:25:01;;;;;;;0.10;0.10;;;;;;;;;;5086767;28;20210;-74
2022/04/17 07:27:27;;;;;;;0.10;0.10;;;;;;;;;;5109260;28;20244;-70
2022/04/17 07:29:54;;;;;;;0.10;0.10;;;;;;;;;;5086874;28;20244;-70
2022/04/17 07:32:20;;;;;;;0.03;0.03;;;;;;;;;;5108966;28;20303;-72
2022/04/17 07:34:47;;;;;;;0.10;0.10;;;;;;;;;;5086643;28;20211;-70
2022/04/17 07:37:13;;;;;;;0.10;0.10;;;;;;;;;;5108787;28;20235;-72
2022/04/17 07:39:40;;;;;;;0.10;0.10;;;;;;;;;;5086710;28;20210;-70
2022/04/17 07:42:07;;;;;;;0.10;0.10;;;;;;;;;;5108858;28;20252;-69
2022/04/17 07:44:35;;;;;;;0.10;0.10;;;;;;;;;;5086356;28;20201;-64
2022/04/17 07:47:01;;;;;;;0.10;0.10;;;;;;;;;;5108030;28;20241;-69
2022/04/17 07:49:28;;;;;;;0.10;0.10;;;;;;;;;;5087390;28;20205;-70
2022/04/17 07:51:55;;;;;;;0.10;0.10;;;;;;;;;;5105644;28;20516;-70
2022/04/17 07:54:21;;;;;;;0.10;0.10;;;;;;;;;;5089385;28;20206;-71
2022/04/17 07:56:49;;;;;;;0.10;0.10;;;;;;;;;;5104003;28;20379;-73
2022/04/17 07:59:16;;;;;;;0.10;0.10;;;;;;;;;;5090778;28;20214;-72
2022/04/17 08:01:46;;;;;;;0.10;0.10;;;;;;;;;;5102085;28;20245;-71
2022/04/17 08:04:12;;;;;;;0.10;0.10;;;;;;;;;;5091185;28;20711;-70
2022/04/17 08:06:38;;;;;;;0.10;0.10;;;;;;;;;;5101304;28;20338;-72
2022/04/17 08:09:04;;;;;;;0.10;0.10;;;;;;;;;;5093559;28;20510;-71
2022/04/17 08:11:31;;;;;;;0.10;0.10;;;;;;;;;;5098656;28;20243;-73
2022/04/17 08:13:58;;;;;;;0.10;0.10;;;;;;;;;;5095482;28;20233;-69
2022/04/17 08:16:24;;;;;;;0.10;0.10;;;;;;;;;;5096923;28;20276;-68
2022/04/17 08:18:51;;;;;;;0.10;0.10;;;;;;;;;;5097198;28;20221;-69
2022/04/17 08:21:17;;;;;;;0.10;0.10;;;;;;;;;;5094986;28;20244;-69
2022/04/17 08:23:43;;;;;;;0.10;0.10;;;;;;;;;;5098772;28;20206;-70
2022/04/17 08:26:10;;;;;;;0.10;0.10;;;;;;;;;;5091522;28;20240;-71
2022/04/17 08:28:36;;;;;;;0.10;0.10;;;;;;;;;;5101022;28;20234;-70
2022/04/17 08:31:04;;;;;;;0.10;0.10;;;;;;;;;;5090960;28;20241;-71
2022/04/17 08:33:32;;;;;;;0.10;0.10;;;;;;;;;;5102531;28;20208;-67
2022/04/17 08:35:59;;;;;;;0.10;0.10;;;;;;;;;;5089939;28;20238;-70
2022/04/17 08:38:25;;;;;;;0.10;0.10;;;;;;;;;;5103776;28;20376;-70
2022/04/17 08:40:53;;;;;;;0.07;0.07;;;;;;;;;;5087721;28;20241;-68
2022/04/17 08:43:21;;;;;;;0.10;0.10;;;;;;;;;;5105202;28;20214;-77
2022/04/17 08:45:50;;;;;;;0.00;0.00;;;;;;;;;;5087533;28;20267;-78
2022/04/17 08:48:17;;;;;;;0.10;0.10;;;;;;;;;;5104753;28;20551;-68
2022/04/17 08:50:44;;;;;;;0.10;0.10;;;;;;;;;;5085234;28;20245;-69
2022/04/17 08:53:15;;;;;;;0.10;0.10;;;;;;;;;;5107622;28;20204;-68
2022/04/17 08:55:41;;;;;;;0.10;0.10;;;;;;;;;;5085028;28;20514;-69
2022/04/17 08:58:07;;;;;;;0.10;0.10;;;;;;;;;;5107798;28;20541;-68
2022/04/17 09:00:34;;;;;;;0.10;0.10;;;;;;;;;;5082407;28;20240;-67
2022/04/17 09:03:00;;;;;;;0.10;0.10;;;;;;;;;;5109970;28;20220;-65
2022/04/17 09:05:28;;;;;;;0.10;0.10;;;;;;;;;;5080132;28;20328;-66
2022/04/17 09:07:54;;;;;;;0.10;0.10;;;;;;;;;;5111511;28;20242;-68
2022/04/17 09:10:24;;;;;;;0.10;0.10;;;;;;;;;;5078859;28;20471;-67
2022/04/17 09:12:51;;;;;;;0.10;0.10;;;;;;;;;;5112331;28;20206;-68
2022/04/17 09:15:17;;;;;;;0.03;0.03;;;;;;;;;;5077988;28;20381;-68
2022/04/17 09:17:44;;;;;;;0.10;0.10;;;;;;;;;;5114250;28;20221;-68
2022/04/17 09:20:18;;;;;;;0.03;0.03;;;;;;;;;;5076002;28;20467;-69
2022/04/17 09:22:49;;;;;;;0.00;0.00;;;;;;;;;;5113647;28;20191;-69
2022/04/17 09:25:16;;;;;;;0.10;0.10;;;;;;;;;;5077303;28;20210;-68
2022/04/17 09:27:54;;;;;;;0.10;0.10;;;;;;;;;;5114500;28;20200;-68
2022/04/17 09:30:28;;;;;;;0.00;0.00;;;;;;;;;;5078726;28;20209;-69
2022/04/17 09:32:54;;;;;;;0.10;0.10;;;;;;;;;;5111068;28;20225;-69
2022/04/17 09:35:22;;;;;;;0.07;0.07;;;;;;;;;;5078771;28;20213;-70
2022/04/17 09:37:50;;;;;;;0.10;0.10;;;;;;;;;;5112422;28;20240;-70
2022/04/17 09:40:20;;;;;;;0.10;0.10;;;;;;;;;;5077050;28;20251;-68
2022/04/17 09:42:47;;;;;;;0.10;0.10;;;;;;;;;;5112630;28;20219;-69
2022/04/17 09:45:14;;;;;;;0.03;0.03;;;;;;;;;;5076001;28;20209;-68
2022/04/17 09:47:40;;;;;;;0.10;0.10;;;;;;;;;;5114361;28;20190;-68
2022/04/17 09:50:08;;;;;;;0.00;0.00;;;;;;;;;;5074503;28;20428;-68
2022/04/17 09:52:40;;;;;;;0.10;0.10;;;;;;;;;;5115946;28;20378;-69
2022/04/17 09:55:09;;;;;;;0.00;0.00;;;;;;;;;;5074228;28;20207;-69
2022/04/17 09:57:36;;;;;;;0.10;0.10;;;;;;;;;;5115315;28;20297;-68
2022/04/17 10:00:10;;;;;;;0.10;0.10;;;;;;;;;;5084385;28;20364;-68
2022/04/17 10:02:36;;;;;;;0.08;0.08;;;;;;;;;;5072389;28;20252;-70
2022/04/17 10:05:04;;;;;;;0.00;0.00;;;;;;;;;;5083965;28;20269;-68
2022/04/17 10:07:31;;;;;;;0.10;0.10;;;;;;;;;;5072285;28;20207;-69
2022/04/17 10:09:57;;;;;;;0.00;0.00;;;;;;;;;;5083432;28;20202;-69
2022/04/17 10:12:25;;;;;;;0.10;0.10;;;;;;;;;;5106070;28;20245;-68
2022/04/17 10:14:52;;;;;;;0.05;0.05;;;;;;;;;;5083731;28;20364;-69
2022/04/17 10:17:20;;;;;;;0.10;0.10;;;;;;;;;;5105684;28;20267;-68
2022/04/17 10:19:46;;;;;;;0.03;0.03;;;;;;;;;;5083352;28;20204;-68
2022/04/17 10:22:13;;;;;;;0.10;0.10;;;;;;;;;;5105772;28;20279;-69
2022/04/17 10:24:44;;;;;;;0.10;0.10;;;;;;;;;;5083849;28;20211;-68
2022/04/17 10:27:14;;;;;;;0.03;0.03;;;;;;;;;;5105718;28;20234;-68
2022/04/17 10:29:43;;;;;;;0.00;0.00;;;;;;;;;;5083764;28;20210;-69
2022/04/17 10:32:16;;;;;;;0.10;0.10;;;;;;;;;;5105731;28;20242;-66
2022/04/17 10:34:51;;;;;;;0.08;0.08;;;;;;;;;;5083383;28;20399;-67
2022/04/17 10:37:31;;;;;;;0.17;0.17;;;;;;;;;;5105535;28;20231;-69
2022/04/17 10:39:58;;;;;;;0.10;0.10;;;;;;;;;;5083498;28;20246;-69
2022/04/17 10:42:33;;;;;;;0.00;0.00;;;;;;;;;;5105485;28;20237;-69
2022/04/17 10:45:04;;;;;;;0.00;0.00;;;;;;;;;;5083422;28;20487;-70
2022/04/17 10:47:30;;;;;;;0.03;0.03;;;;;;;;;;5071361;28;20250;-68
2022/04/17 10:49:57;;;;;;;0.10;0.10;;;;;;;;;;5083281;28;20203;-69
2022/04/17 10:52:31;;;;;;;0.00;0.00;;;;;;;;;;5104032;28;20241;-68
2022/04/17 10:55:07;;;;;;;0.00;0.00;;;;;;;;;;5082944;28;20241;-68
2022/04/17 10:57:42;;;;;;;0.10;0.10;;;;;;;;;;5070917;28;20221;-69
2022/04/17 11:00:32;;;;;;;0.10;0.10;;;;;;;;;;5073782;28;20214;-69
2022/04/17 11:02:59;;;;;;;0.10;0.10;;;;;;;;;;5108475;28;20219;-69
2022/04/17 11:08:21;;;;;;;0.00;0.00;;;;;;;;;;5101065;28;20242;-68
2022/04/17 11:10:51;;;;;;;0.00;0.00;;;;;;;;;;5084228;28;20245;-68
2022/04/17 11:13:18;;;;;;;0.10;0.10;;;;;;;;;;5102718;28;20255;-69
2022/04/17 11:15:49;;;;;;;0.00;0.00;;;;;;;;;;5082786;28;20246;-68
2022/04/17 11:18:20;;;;;;;0.10;0.10;;;;;;;;;;5103646;28;20231;-69
2022/04/17 11:20:51;;;;;;;0.00;0.00;;;;;;;;;;5083457;28;20305;-68
2022/04/17 11:23:51;;;;;;;0.10;0.10;;;;;;;;;;5102868;28;20193;-68
2022/04/17 11:26:18;;;;;;;0.10;0.10;;;;;;;;;;5091702;28;20236;-68
2022/04/17 11:28:58;;;;;;;0.10;0.10;;;;;;;;;;5095394;28;20202;-68
2022/04/17 11:31:32;;;;;;;0.10;0.10;;;;;;;;;;5094180;28;20294;-68
2022/04/17 11:34:00;;;;;;;0.10;0.10;;;;;;;;;;5091639;28;20219;-68
2022/04/17 11:36:26;;;;;;;0.00;0.00;;;;;;;;;;5094235;28;20257;-69
2022/04/17 11:38:52;;;;;;;0.08;0.08;;;;;;;;;;5092787;28;20229;-71
2022/04/17 11:41:20;;;;;;;0.00;0.00;;;;;;;;;;5092542;28;20251;-69
2022/04/17 11:44:00;;;;;;;0.10;0.10;;;;;;;;;;5094773;28;20320;-68
2022/04/17 11:46:26;;;;;;;0.03;0.03;;;;;;;;;;5094835;28;20263;-69
2022/04/17 11:48:55;;;;;;;0.00;0.00;;;;;;;;;;5093216;28;20385;-71
2022/04/17 11:51:21;;;;;;;0.03;0.03;;;;;;;;;;5093420;28;20255;-70
2022/04/17 11:53:48;;;;;;;0.10;0.10;;;;;;;;;;5094252;28;20376;-70
2022/04/17 11:56:14;;;;;;;0.05;0.05;;;;;;;;;;5091075;28;20272;-70
2022/04/17 11:58:40;;;;;;;0.10;0.10;;;;;;;;;;5096683;28;20223;-69
2022/04/17 12:01:07;;;;;;;0.10;0.10;;;;;;;;;;5088479;28;20264;-68
2022/04/17 12:03:35;;;;;;;0.10;0.10;;;;;;;;;;5098853;28;20234;-69
2022/04/17 12:06:04;;;;;;;0.00;0.00;;;;;;;;;;5087638;28;20478;-69
2022/04/17 12:08:32;;;;;;;0.10;0.10;;;;;;;;;;5099078;28;20203;-68
2022/04/17 12:10:58;;;;;;;0.00;0.00;;;;;;;;;;5090419;28;20297;-68
2022/04/17 12:13:25;;;;;;;0.03;0.03;;;;;;;;;;5104455;28;20417;-68
2022/04/17 12:15:58;;;;;;;0.10;0.10;;;;;;;;;;5088753;28;20305;-68
2022/04/17 12:18:25;;;;;;;0.00;0.00;;;;;;;;;;5104258;28;20468;-69
2022/04/17 12:20:54;;;;;;;0.10;0.10;;;;;;;;;;5088403;28;20468;-68
2022/04/17 12:23:23;;;;;;;0.00;0.00;;;;;;;;;;5105478;28;20211;-70
2022/04/17 12:25:49;;;;;;;0.10;0.10;;;;;;;;;;5087551;28;20242;-68
2022/04/17 12:28:15;;;;;;;0.00;0.00;;;;;;;;;;5106722;28;20211;-68
2022/04/17 12:30:42;;;;;;;0.05;0.05;;;;;;;;;;5085563;28;20257;-67
2022/04/17 12:33:20;;;;;;;0.10;0.10;;;;;;;;;;5108283;28;20241;-68
2022/04/17 12:35:46;;;;;;;0.08;0.08;;;;;;;;;;5086772;28;20542;-68
2022/04/17 12:38:12;;;;;;;0.03;0.03;;;;;;;;;;5107293;28;20424;-68
2022/04/17 12:40:42;;;;;;;0.00;0.00;;;;;;;;;;5084720;28;20237;-69
2022/04/17 12:43:15;;;;;;;0.10;0.10;;;;;;;;;;5107973;28;20243;-70
2022/04/17 12:45:51;;;;;;;0.00;0.00;;;;;;;;;;5085058;28;20241;-69
2022/04/17 12:48:24;;;;;;;0.10;0.10;;;;;;;;;;5105249;28;20201;-69
2022/04/17 12:50:54;;;;;;;0.10;0.10;;;;;;;;;;5087849;28;20304;-69
2022/04/17 12:53:21;;;;;;;0.10;0.10;;;;;;;;;;5104827;28;20236;-69
2022/04/17 12:55:52;;;;;;;0.00;0.00;;;;;;;;;;5086251;28;20288;-68
2022/04/17 12:58:18;;;;;;;0.10;0.10;;;;;;;;;;5105308;28;20274;-68
2022/04/17 13:00:44;;;;;;;0.07;0.07;;;;;;;;;;5085561;28;20241;-68
2022/04/17 13:03:11;;;;;;;0.00;0.00;;;;;;;;;;5107327;28;20211;-68
2022/04/17 13:05:38;;;;;;;0.00;0.00;;;;;;;;;;5083751;28;20302;-68
2022/04/17 13:08:05;;;;;;;0.10;0.10;;;;;;;;;;5109124;28;20200;-69
2022/04/17 13:10:32;;;;;;;0.10;0.10;;;;;;;;;;5082181;28;20270;-69
2022/04/17 13:13:02;;;;;;;0.03;0.03;;;;;;;;;;5110130;28;20211;-70
2022/04/17 13:15:32;;;;;;;0.03;0.03;;;;;;;;;;5081319;28;20280;-68
2022/04/17 13:17:59;;;;;;;1.60;1.50;;;;;;;;;;5110057;28;20219;-68
2022/04/17 13:20:27;;;;;;;0.00;0.00;;;;;;;;;;5080170;28;20275;-68
2022/04/17 13:22:53;;;;;;;0.00;0.00;;;;;;;;;;5111252;28;20195;-68
2022/04/17 13:25:20;;;;;;;0.10;0.10;;;;;;;;;;5078528;28;20210;-67
2022/04/17 13:27:47;;;;;;;0.03;0.03;;;;;;;;;;5113362;28;20413;-69
2022/04/17 13:30:15;;;;;;;0.03;0.03;;;;;;;;;;5076824;28;20249;-70
2022/04/17 13:32:41;;;;;;;0.10;0.10;;;;;;;;;;5114630;28;20483;-69
2022/04/17 13:35:09;;;;;;;0.10;0.10;;;;;;;;;;5075256;28;20283;-69
2022/04/17 13:40:19;;;;;;;0.10;0.10;;;;;;;;;;5078115;28;20267;-69
2022/04/17 13:42:45;;;;;;;0.05;0.05;;;;;;;;;;5113091;28;20224;-68
2022/04/17 13:45:12;;;;;;;0.00;0.00;;;;;;;;;;5076124;28;20207;-68
2022/04/17 13:47:40;;;;;;;0.10;0.10;;;;;;;;;;5114992;28;20200;-69
2022/04/17 13:50:07;;;;;;;0.00;0.00;;;;;;;;;;5076836;28;20216;-69
2022/04/17 13:52:34;;;;;;;0.10;0.10;;;;;;;;;;5116459;28;20219;-67
2022/04/17 13:55:00;;;;;;;0.00;0.00;;;;;;;;;;5084371;28;20298;-67
2022/04/17 13:57:27;;;;;;;0.10;0.10;;;;;;;;;;5106222;28;20263;-67
2022/04/17 13:59:53;;;;;;;0.03;0.03;;;;;;;;;;5083806;28;20205;-69
2022/04/17 14:02:19;;;;;;;0.10;0.10;;;;;;;;;;5106647;28;20287;-68
2022/04/17 14:04:47;;;;;;;0.05;0.05;;;;;;;;;;5084012;28;20260;-67
2022/04/17 14:07:13;;;;;;;0.10;0.10;;;;;;;;;;5106170;28;20250;-67
2022/04/17 14:09:40;;;;;;;0.00;0.00;;;;;;;;;;5084058;28;20238;-69
2022/04/17 14:12:08;;;;;;;0.05;0.05;;;;;;;;;;5106078;28;20276;-68
2022/04/17 14:14:35;;;;;;;0.10;0.10;;;;;;;;;;5083883;28;20214;-68
2022/04/17 14:17:01;;;;;;;0.10;0.10;;;;;;;;;;5104372;28;20240;-67
2022/04/17 14:19:27;;;;;;;0.00;0.00;;;;;;;;;;5085393;28;20252;-68
2022/04/17 14:21:55;;;;;;;0.10;0.10;;;;;;;;;;5102734;28;20287;-68
2022/04/17 14:24:21;;;;;;;0.00;0.00;;;;;;;;;;5086502;28;20248;-68
2022/04/17 14:26:47;;;;;;;0.10;0.10;;;;;;;;;;5100844;28;20572;-69
2022/04/17 14:29:14;;;;;;;0.00;0.00;;;;;;;;;;5088397;28;20380;-67
2022/04/17 14:31:40;;;;;;;0.08;0.08;;;;;;;;;;5098821;28;20356;-68
2022/04/17 14:34:06;;;;;;;0.10;0.10;;;;;;;;;;5090082;28;20204;-69
2022/04/17 14:36:33;;;;;;;0.10;0.10;;;;;;;;;;5096786;28;20237;-67
2022/04/17 14:39:00;;;;;;;0.00;0.00;;;;;;;;;;5092036;28;20371;-68
2022/04/17 14:41:26;;;;;;;0.00;0.00;;;;;;;;;;5095075;28;20246;-68
2022/04/17 14:43:53;;;;;;;0.00;0.00;;;;;;;;;;5093697;28;20204;-67
2022/04/17 14:46:19;;;;;;;0.08;0.08;;;;;;;;;;5093014;28;20246;-69
2022/04/17 14:48:46;;;;;;;0.10;0.10;;;;;;;;;;5095245;28;20209;-68
2022/04/17 14:51:12;;;;;;;0.08;0.08;;;;;;;;;;5091079;28;20241;-69
2022/04/17 14:53:38;;;;;;;0.00;0.00;;;;;;;;;;5097328;28;20203;-67
2022/04/17 14:56:06;;;;;;;0.00;0.00;;;;;;;;;;5089059;28;20586;-68
2022/04/17 14:58:33;;;;;;;0.05;0.05;;;;;;;;;;5099147;28;20286;-68
2022/04/17 15:01:02;;;;;;;0.00;0.00;;;;;;;;;;5087464;28;20242;-67
2022/04/17 15:03:30;;;;;;;0.00;0.00;;;;;;;;;;5100102;28;20206;-68
2022/04/17 15:05:59;;;;;;;0.10;0.10;;;;;;;;;;5086845;28;20327;-68
2022/04/17 15:08:26;;;;;;;0.00;0.00;;;;;;;;;;5100814;28;20268;-67